Accueil
METAR-TAF:

METAR-TAF

Aéroports :

Aéroport international Blaise-Diagne

Dakar, Sénégal

latitude: 14-40-16N, longitude: 17-04-01W, altitude: 88 m

Observation

Le bulletin a été fait il y a 27 minutes, à 15:00 UTC
Vent 14 kt de nord
Température 31°C
Humidité 36%
Pression 1012 hPa
Visibilité 10 km ou plus
pas de nuages en-dessous de 1500 mètres et pas de cumulonimbus.

METAR: GOBD 051500Z 35014KT CAVOK 31/14 Q1012 NOSIG

Heure: 15:27 (15:27 UTC)

Prévision

Le bulletin a été fait il y a 3 heures et 57 minutes, à 11:30 UTC
Prévision valable du 05 à 12 UTC au 06 à 18 UTC
Vent 13 kt de nord
Visibilité 10 km ou plus
pas de nuages en-dessous de 1500 mètres et pas de cumulonimbus.

TAF: GOBD 051130Z 0512/0618 01013KT CAVOK

Observations et prévisions météorologiques de plus de 4000 aéroports (messages METAR et TAF).

Les stations disponibles sont représentées par des disques jaunes et rouges sur la carte.

Passer la souris dessus pour voir le nom de la station.

Cliquer dessus pour voir les observations et prévisions météorologiques.

Pour changer de carte: cliquez sur les boutons verts avec une croix noire pour zoomer, sur le bouton vert avec un tiret pour effectuer un zoom arrière, ou sur les flèches vertes pour les cartes adjacentes.


METAR-TAF: